createdAt,value
2022-12-18T00:00:27.707Z,21.73
2022-12-18T00:01:37.124Z,20.50
2022-12-18T00:02:18.738Z,19.80
2022-12-18T00:03:00.648Z,19.67
2022-12-18T00:03:42.866Z,20.20
2022-12-18T00:04:26.577Z,20.80
2022-12-18T00:05:08.326Z,21.50
2022-12-18T00:05:51.495Z,21.70
2022-12-18T00:06:33.730Z,20.77
2022-12-18T00:07:15.324Z,21.30
2022-12-18T00:07:56.949Z,20.80
2022-12-18T00:08:39.439Z,21.63
2022-12-18T00:09:21.287Z,22.40
2022-12-18T00:10:06.994Z,21.80
2022-12-18T00:10:48.603Z,22.80
2022-12-18T00:11:31.621Z,21.73
2022-12-18T00:12:57.399Z,24.07
2022-12-18T00:13:39.505Z,24.00
2022-12-18T00:14:21.303Z,25.27
2022-12-18T00:15:03.018Z,25.77
2022-12-18T00:15:44.664Z,23.90
2022-12-18T00:16:28.341Z,23.27
2022-12-18T00:17:09.968Z,21.57
2022-12-18T00:17:51.638Z,21.43
2022-12-18T00:18:33.636Z,22.40
2022-12-18T00:19:15.904Z,23.13
2022-12-18T00:19:57.500Z,24.27
2022-12-18T00:20:40.896Z,23.50
2022-12-18T00:21:22.894Z,21.53
2022-12-18T00:22:04.597Z,22.20
2022-12-18T00:22:46.212Z,22.00
2022-12-18T00:23:28.530Z,22.07
2022-12-18T00:24:11.436Z,23.07
2022-12-18T00:24:53.058Z,23.40
2022-12-18T00:25:35.788Z,24.00
2022-12-18T00:26:29.306Z,23.80
2022-12-18T00:27:14.042Z,22.40
2022-12-18T00:27:56.179Z,23.87
2022-12-18T00:28:38.077Z,23.80
2022-12-18T00:29:20.041Z,21.97
2022-12-18T00:30:01.670Z,23.67
2022-12-18T00:30:43.365Z,22.33
2022-12-18T00:31:26.197Z,22.03
2022-12-18T00:32:08.526Z,22.43
2022-12-18T00:32:50.101Z,21.90
2022-12-18T00:33:32.203Z,22.83
2022-12-18T00:34:14.394Z,20.87
2022-12-18T00:34:58.481Z,20.33
2022-12-18T00:35:40.112Z,22.03
2022-12-18T00:36:25.290Z,24.30
2022-12-18T00:37:07.312Z,22.60
2022-12-18T00:37:48.885Z,23.50
2022-12-18T00:38:30.694Z,21.20
2022-12-18T00:39:13.198Z,22.07
2022-12-18T00:39:54.758Z,21.33
2022-12-18T00:40:36.320Z,23.17
2022-12-18T00:41:38.997Z,22.47
2022-12-18T00:42:39.660Z,22.20
2022-12-18T00:43:21.334Z,22.00
2022-12-18T00:44:03.811Z,22.67
2022-12-18T00:44:45.388Z,23.23
2022-12-18T00:45:32.015Z,24.80
2022-12-18T00:46:13.772Z,27.80
2022-12-18T00:46:55.503Z,24.20
2022-12-18T00:47:37.134Z,24.90
2022-12-18T00:48:18.930Z,23.10
2022-12-18T00:49:00.550Z,25.03
2022-12-18T00:49:42.217Z,24.53
2022-12-18T00:50:25.525Z,23.80
2022-12-18T00:51:07.718Z,23.37
2022-12-18T00:51:49.548Z,23.80
2022-12-18T00:52:31.235Z,24.63
2022-12-18T00:53:13.229Z,23.87
2022-12-18T00:53:55.072Z,24.23
2022-12-18T00:54:36.659Z,23.63
2022-12-18T00:55:19.000Z,25.57
2022-12-18T00:56:02.269Z,26.17
2022-12-18T00:56:50.970Z,25.93
2022-12-18T00:57:32.558Z,26.10
2022-12-18T00:58:16.174Z,26.90
2022-12-18T00:58:57.997Z,25.60
2022-12-18T00:59:39.649Z,24.77
2022-12-18T01:00:21.901Z,23.53
2022-12-18T01:01:05.606Z,26.43
2022-12-18T01:01:49.994Z,24.57
2022-12-18T01:02:31.890Z,24.80
2022-12-18T01:03:15.012Z,25.53
2022-12-18T01:04:01.043Z,24.23
2022-12-18T01:04:42.646Z,23.67
2022-12-18T01:05:24.281Z,21.93
2022-12-18T01:06:08.307Z,22.10
2022-12-18T01:06:49.932Z,20.93
2022-12-18T01:07:31.664Z,20.90
2022-12-18T01:08:13.317Z,29.40
2022-12-18T01:08:57.405Z,32.73
2022-12-18T01:09:38.962Z,30.00
2022-12-18T01:10:21.059Z,24.63
2022-12-18T01:11:16.000Z,27.27
2022-12-18T01:11:57.550Z,24.03
2022-12-18T01:12:39.741Z,24.50
2022-12-18T01:13:21.354Z,24.00
2022-12-18T01:14:05.692Z,22.90
2022-12-18T01:14:47.366Z,24.50
2022-12-18T01:15:29.875Z,25.40
2022-12-18T01:16:15.801Z,23.67
2022-12-18T01:16:57.393Z,24.27
2022-12-18T01:17:39.205Z,24.83
2022-12-18T01:18:20.809Z,23.63
2022-12-18T01:19:02.506Z,23.07
2022-12-18T01:19:44.157Z,22.73
2022-12-18T01:20:25.811Z,23.17
2022-12-18T01:21:09.186Z,23.10
2022-12-18T01:21:52.373Z,21.97
2022-12-18T01:22:33.924Z,24.73
2022-12-18T01:23:18.096Z,25.60
2022-12-18T01:23:59.720Z,26.00
2022-12-18T01:24:41.282Z,25.10
2022-12-18T01:25:22.862Z,23.70
2022-12-18T01:26:14.678Z,25.03
2022-12-18T01:26:58.030Z,28.37
2022-12-18T01:27:39.670Z,25.33
2022-12-18T01:28:21.226Z,25.43
2022-12-18T01:29:02.846Z,24.80
2022-12-18T01:29:44.500Z,22.97
2022-12-18T01:30:26.294Z,23.50
2022-12-18T01:31:34.760Z,22.20
2022-12-18T01:32:17.645Z,23.10
2022-12-18T01:32:59.233Z,23.80
2022-12-18T01:33:41.461Z,22.77
2022-12-18T01:34:24.770Z,23.40
2022-12-18T01:35:07.911Z,24.60
2022-12-18T01:35:49.560Z,24.77
2022-12-18T01:36:34.518Z,28.10
2022-12-18T01:37:16.107Z,25.03
2022-12-18T01:38:00.643Z,26.43
2022-12-18T01:38:43.474Z,26.43
2022-12-18T01:39:25.038Z,25.13
2022-12-18T01:40:07.560Z,23.50
2022-12-18T01:40:49.098Z,25.40
2022-12-18T01:41:52.178Z,25.93
2022-12-18T01:42:36.851Z,23.73
2022-12-18T01:43:18.407Z,24.83
2022-12-18T01:44:01.174Z,22.40
2022-12-18T01:45:05.910Z,23.60
2022-12-18T01:45:47.844Z,24.13
2022-12-18T01:46:29.464Z,24.00
2022-12-18T01:47:18.226Z,22.20
2022-12-18T01:48:07.985Z,23.53
2022-12-18T01:48:56.321Z,21.63
2022-12-18T01:49:39.502Z,22.43
2022-12-18T01:50:31.792Z,25.87
2022-12-18T01:51:13.698Z,24.87
2022-12-18T01:51:55.837Z,24.40
2022-12-18T01:52:42.744Z,22.90
2022-12-18T01:53:24.830Z,23.20
2022-12-18T01:54:06.476Z,23.60
2022-12-18T01:54:51.952Z,23.23
2022-12-18T01:55:49.157Z,24.30
2022-12-18T01:56:30.781Z,22.67
2022-12-18T01:57:12.430Z,22.20
2022-12-18T01:57:56.975Z,30.97
2022-12-18T01:58:52.511Z,28.00
2022-12-18T01:59:35.690Z,26.20
2022-12-18T02:00:20.574Z,26.67
2022-12-18T02:01:02.316Z,23.73
2022-12-18T02:01:44.093Z,24.40
2022-12-18T02:02:28.759Z,24.27
2022-12-18T02:03:10.606Z,22.77
2022-12-18T02:03:53.045Z,21.10
2022-12-18T02:04:34.927Z,21.13
2022-12-18T02:05:23.513Z,22.47
2022-12-18T02:06:11.901Z,22.80
2022-12-18T02:07:32.173Z,21.97
2022-12-18T02:08:28.191Z,20.43
2022-12-18T02:09:13.940Z,20.00
2022-12-18T02:09:59.864Z,19.97
2022-12-18T02:10:55.131Z,21.00
2022-12-18T02:12:08.760Z,22.90
2022-12-18T02:13:04.273Z,21.80
2022-12-18T02:13:52.350Z,22.03
2022-12-18T02:14:43.908Z,21.13
2022-12-18T02:15:34.300Z,21.63
2022-12-18T02:16:21.638Z,23.37
2022-12-18T02:17:15.939Z,25.63
2022-12-18T02:18:06.292Z,23.50
2022-12-18T02:18:56.903Z,21.93
2022-12-18T02:19:44.139Z,20.77
2022-12-18T02:20:34.187Z,22.87
2022-12-18T02:21:35.337Z,21.23
2022-12-18T02:22:28.156Z,21.10
2022-12-18T02:23:48.152Z,21.37
2022-12-18T02:24:49.190Z,22.47
2022-12-18T02:26:06.975Z,20.90
2022-12-18T02:26:56.880Z,19.90
2022-12-18T02:27:46.122Z,21.47
2022-12-18T02:28:36.145Z,21.73
2022-12-18T02:29:30.541Z,21.10
2022-12-18T02:30:13.194Z,20.27
2022-12-18T02:30:58.759Z,21.57
2022-12-18T02:31:46.206Z,20.17
2022-12-18T02:32:31.805Z,21.10
2022-12-18T02:33:15.102Z,21.67
2022-12-18T02:34:03.617Z,20.10
2022-12-18T02:34:51.981Z,20.43
2022-12-18T02:35:35.519Z,19.77
2022-12-18T02:36:19.779Z,19.10
2022-12-18T02:37:07.643Z,20.80
2022-12-18T02:37:49.895Z,19.83
2022-12-18T02:38:32.579Z,21.67
2022-12-18T02:39:23.200Z,19.20
2022-12-18T02:40:16.469Z,20.97
2022-12-18T02:40:59.410Z,19.77
2022-12-18T02:41:42.562Z,20.37
2022-12-18T02:42:25.001Z,20.93
2022-12-18T02:43:12.697Z,21.60
2022-12-18T02:43:59.716Z,21.67
2022-12-18T02:44:50.914Z,22.07
2022-12-18T02:45:35.748Z,20.93
2022-12-18T02:46:31.808Z,21.00
2022-12-18T02:47:19.237Z,20.03
2022-12-18T02:48:03.798Z,19.97
2022-12-18T02:48:48.227Z,20.97
2022-12-18T02:49:41.335Z,20.27
2022-12-18T02:50:38.858Z,20.60
2022-12-18T02:51:39.594Z,19.00
2022-12-18T02:52:33.566Z,20.27
2022-12-18T02:53:33.639Z,18.77
2022-12-18T02:54:40.095Z,21.77
2022-12-18T02:55:45.700Z,20.43
2022-12-18T02:56:45.188Z,20.20
2022-12-18T02:57:37.750Z,20.33
2022-12-18T02:58:58.847Z,21.17
2022-12-18T03:00:06.850Z,22.23
2022-12-18T03:01:14.891Z,32.57
2022-12-18T03:02:22.407Z,33.03
2022-12-18T03:03:17.276Z,33.63
2022-12-18T03:04:05.590Z,29.67
2022-12-18T03:05:16.889Z,26.47
2022-12-18T03:06:11.761Z,22.90
2022-12-18T03:07:09.563Z,22.30
2022-12-18T03:08:09.829Z,23.07
2022-12-18T03:08:59.729Z,21.23
2022-12-18T03:09:48.782Z,22.57
2022-12-18T03:10:33.131Z,22.73
2022-12-18T03:11:16.190Z,21.97
2022-12-18T03:12:40.241Z,20.80
2022-12-18T03:13:37.215Z,19.30
2022-12-18T03:14:23.072Z,21.27
2022-12-18T03:15:18.058Z,23.23
2022-12-18T03:16:03.139Z,22.20
2022-12-18T03:16:47.817Z,25.57
2022-12-18T03:17:32.980Z,27.43
2022-12-18T03:18:19.953Z,27.37
2022-12-18T03:19:25.295Z,27.63
2022-12-18T03:20:14.138Z,29.20
2022-12-18T03:21:00.011Z,29.10
2022-12-18T03:21:46.319Z,29.10
2022-12-18T03:22:34.708Z,29.63
2022-12-18T03:23:26.289Z,29.53
2022-12-18T03:24:10.334Z,27.97
2022-12-18T03:24:53.669Z,28.83
2022-12-18T03:25:40.581Z,30.40
2022-12-18T03:26:26.318Z,29.47
2022-12-18T03:27:16.980Z,29.03
2022-12-18T03:28:04.234Z,26.53
2022-12-18T03:28:52.116Z,30.50
2022-12-18T03:29:55.076Z,29.20
2022-12-18T03:30:44.890Z,26.20
2022-12-18T03:31:30.558Z,28.37
2022-12-18T03:32:20.200Z,29.03
2022-12-18T03:33:07.590Z,29.00
2022-12-18T03:33:58.389Z,26.73
2022-12-18T03:34:52.838Z,26.43
2022-12-18T03:35:41.162Z,26.83
2022-12-18T03:36:23.740Z,26.60
2022-12-18T03:37:07.844Z,28.83
2022-12-18T03:37:51.173Z,25.90
2022-12-18T03:38:33.360Z,27.37
2022-12-18T03:39:15.421Z,29.30
2022-12-18T03:40:03.218Z,28.60
2022-12-18T03:41:05.185Z,28.63
2022-12-18T03:42:16.046Z,26.43
2022-12-18T03:43:17.648Z,28.70
2022-12-18T03:44:16.916Z,28.40
2022-12-18T03:45:22.701Z,26.37
2022-12-18T03:46:23.070Z,28.07
2022-12-18T03:47:08.877Z,27.40
2022-12-18T03:48:17.094Z,29.83
2022-12-18T03:49:09.893Z,30.17
2022-12-18T03:49:51.781Z,29.33
2022-12-18T03:50:54.952Z,29.63
2022-12-18T03:51:36.660Z,25.10
2022-12-18T03:52:26.897Z,28.50
2022-12-18T03:53:24.077Z,27.13
2022-12-18T03:54:09.833Z,26.80
2022-12-18T03:54:59.067Z,26.97
2022-12-18T03:55:41.739Z,26.73
2022-12-18T03:56:27.592Z,27.70
2022-12-18T03:57:22.448Z,25.80
2022-12-18T03:58:09.221Z,26.33
2022-12-18T03:59:06.913Z,25.97
2022-12-18T03:59:55.384Z,28.97
2022-12-18T04:00:40.910Z,29.40
2022-12-18T04:01:32.991Z,27.80
2022-12-18T04:02:18.362Z,29.00
2022-12-18T04:03:02.839Z,27.37
2022-12-18T04:03:51.704Z,27.10
2022-12-18T04:04:38.881Z,26.77
2022-12-18T04:05:23.515Z,28.07
2022-12-18T04:06:07.197Z,30.33
2022-12-18T04:06:51.336Z,29.10
2022-12-18T04:07:34.759Z,31.87
2022-12-18T04:08:16.435Z,35.50
2022-12-18T04:09:06.491Z,34.03
2022-12-18T04:09:57.480Z,31.20
2022-12-18T04:10:39.422Z,31.57
2022-12-18T04:11:21.080Z,33.47
2022-12-18T04:12:03.704Z,30.63
2022-12-18T04:12:45.440Z,31.40
2022-12-18T04:13:32.720Z,31.67
2022-12-18T04:14:18.311Z,30.30
2022-12-18T04:15:03.107Z,31.80
2022-12-18T04:15:44.815Z,32.50
2022-12-18T04:16:30.148Z,32.70
2022-12-18T04:17:15.677Z,29.17
2022-12-18T04:17:57.510Z,31.07
2022-12-18T04:18:41.974Z,30.87
2022-12-18T04:19:24.050Z,30.57
2022-12-18T04:20:07.918Z,29.17
2022-12-18T04:20:50.341Z,29.27
2022-12-18T04:21:32.893Z,26.90
2022-12-18T04:22:15.231Z,28.80
2022-12-18T04:23:01.121Z,26.73
2022-12-18T04:23:43.341Z,28.60
2022-12-18T04:24:25.213Z,30.63
2022-12-18T04:25:17.793Z,31.03
2022-12-18T04:26:14.377Z,29.87
2022-12-18T04:27:08.286Z,29.57
2022-12-18T04:27:56.154Z,28.10
2022-12-18T04:28:37.934Z,28.40
2022-12-18T04:29:19.639Z,29.70
2022-12-18T04:30:02.132Z,29.97
2022-12-18T04:30:45.356Z,29.17
2022-12-18T04:31:27.335Z,31.17
2022-12-18T04:32:09.386Z,29.10
2022-12-18T04:32:52.570Z,32.07
2022-12-18T04:33:35.331Z,30.50
2022-12-18T04:34:17.669Z,32.93
2022-12-18T04:35:07.501Z,30.90
2022-12-18T04:35:50.191Z,31.70
2022-12-18T04:36:32.820Z,32.50
2022-12-18T04:37:14.527Z,32.80
2022-12-18T04:37:56.170Z,31.33
2022-12-18T04:38:37.787Z,32.23
2022-12-18T04:39:23.634Z,34.40
2022-12-18T04:40:11.156Z,33.67
2022-12-18T04:40:57.041Z,32.57
2022-12-18T04:41:42.154Z,30.63
2022-12-18T04:42:24.761Z,32.90
2022-12-18T04:43:06.565Z,34.17
2022-12-18T04:43:48.244Z,34.40
2022-12-18T04:44:29.974Z,32.43
2022-12-18T04:45:11.637Z,33.13
2022-12-18T04:45:53.233Z,30.70
2022-12-18T04:46:34.864Z,32.60
2022-12-18T04:47:16.517Z,32.90
2022-12-18T04:47:59.409Z,32.67
2022-12-18T04:48:41.258Z,31.47
2022-12-18T04:49:22.958Z,31.60
2022-12-18T04:50:05.093Z,28.20
2022-12-18T04:50:47.979Z,31.50
2022-12-18T04:51:29.602Z,32.23
2022-12-18T04:52:11.232Z,33.53
2022-12-18T04:52:53.496Z,32.90
2022-12-18T04:53:35.269Z,33.87
2022-12-18T04:54:16.874Z,35.77
2022-12-18T04:54:58.484Z,33.93
2022-12-18T04:55:40.062Z,33.17
2022-12-18T04:56:22.363Z,35.03
2022-12-18T04:57:04.090Z,32.80
2022-12-18T04:57:45.727Z,32.23
2022-12-18T04:58:27.327Z,32.87
2022-12-18T04:59:08.893Z,34.30
2022-12-18T04:59:50.497Z,35.00
2022-12-18T05:00:32.089Z,32.43
2022-12-18T05:01:16.246Z,31.97
2022-12-18T05:01:58.002Z,33.13
2022-12-18T05:02:40.039Z,31.23
2022-12-18T05:03:21.763Z,32.80
2022-12-18T05:04:04.109Z,33.93
2022-12-18T05:04:45.831Z,32.53
2022-12-18T05:05:28.032Z,33.87
2022-12-18T05:06:10.195Z,33.57
2022-12-18T05:06:51.916Z,31.90
2022-12-18T05:07:33.505Z,33.20
2022-12-18T05:08:15.129Z,33.90
2022-12-18T05:08:56.739Z,32.30
2022-12-18T05:09:38.294Z,32.83
2022-12-18T05:10:19.861Z,34.83
2022-12-18T05:11:07.843Z,33.53
2022-12-18T05:11:49.507Z,34.07
2022-12-18T05:12:32.196Z,33.40
2022-12-18T05:13:13.775Z,32.77
2022-12-18T05:13:58.145Z,32.60
2022-12-18T05:14:39.842Z,32.97
2022-12-18T05:15:21.405Z,33.33
2022-12-18T05:16:03.704Z,33.97
2022-12-18T05:16:45.410Z,33.73
2022-12-18T05:17:27.466Z,31.80
2022-12-18T05:18:09.498Z,32.83
2022-12-18T05:18:51.199Z,32.43
2022-12-18T05:19:32.797Z,32.23
2022-12-18T05:20:14.805Z,31.57
2022-12-18T05:20:56.488Z,31.60
2022-12-18T05:21:38.077Z,31.07
2022-12-18T05:22:19.795Z,32.70
2022-12-18T05:23:01.637Z,32.70
2022-12-18T05:23:43.703Z,31.90
2022-12-18T05:24:25.693Z,32.17
2022-12-18T05:25:07.570Z,32.33
2022-12-18T05:26:03.363Z,32.23
2022-12-18T05:26:44.965Z,30.90
2022-12-18T05:27:26.520Z,31.80
2022-12-18T05:28:08.105Z,31.43
2022-12-18T05:28:49.678Z,33.60
2022-12-18T05:29:31.276Z,34.00
2022-12-18T05:30:14.061Z,34.57
2022-12-18T05:30:58.317Z,33.37
2022-12-18T05:31:40.211Z,32.30
2022-12-18T05:32:21.853Z,33.53
2022-12-18T05:33:03.488Z,31.93
2022-12-18T05:33:45.300Z,33.13
2022-12-18T05:34:26.845Z,33.57
2022-12-18T05:35:10.287Z,31.97
2022-12-18T05:35:56.873Z,31.70
2022-12-18T05:36:38.439Z,32.20
2022-12-18T05:37:20.009Z,32.13
2022-12-18T05:38:01.633Z,33.13
2022-12-18T05:38:43.420Z,33.27
2022-12-18T05:39:25.023Z,32.50
2022-12-18T05:40:07.323Z,33.07
2022-12-18T05:40:50.588Z,33.27
2022-12-18T05:41:32.218Z,32.23
2022-12-18T05:42:13.844Z,31.10
2022-12-18T05:42:55.431Z,30.80
2022-12-18T05:43:39.119Z,32.40
2022-12-18T05:44:21.021Z,29.93
2022-12-18T05:45:02.861Z,31.17
2022-12-18T05:45:44.844Z,31.63
2022-12-18T05:46:27.253Z,31.93
2022-12-18T05:47:08.838Z,33.43
2022-12-18T05:47:50.455Z,31.50
2022-12-18T05:48:32.058Z,31.97
2022-12-18T05:49:16.429Z,30.57
2022-12-18T05:49:58.177Z,31.87
2022-12-18T05:50:41.814Z,31.77
2022-12-18T05:51:23.813Z,31.63
2022-12-18T05:52:05.668Z,30.83
2022-12-18T05:52:47.310Z,32.17
2022-12-18T05:53:28.858Z,30.63
2022-12-18T05:54:10.448Z,31.60
2022-12-18T05:54:52.042Z,32.30
2022-12-18T05:55:37.608Z,32.93
2022-12-18T05:56:21.656Z,30.93
2022-12-18T05:57:03.358Z,30.77
2022-12-18T05:57:44.971Z,32.33
2022-12-18T05:58:27.614Z,31.87
2022-12-18T05:59:09.686Z,30.80
2022-12-18T05:59:51.262Z,32.20
2022-12-18T06:00:35.770Z,31.80
2022-12-18T06:01:20.338Z,31.53
2022-12-18T06:02:02.182Z,33.37
2022-12-18T06:02:47.910Z,31.40
2022-12-18T06:03:33.875Z,32.13
2022-12-18T06:04:15.927Z,31.60
2022-12-18T06:04:57.532Z,31.93
2022-12-18T06:05:41.688Z,31.83
2022-12-18T06:06:26.732Z,30.37
2022-12-18T06:07:08.341Z,31.33
2022-12-18T06:07:49.985Z,33.23
2022-12-18T06:08:31.719Z,33.30
2022-12-18T06:09:13.553Z,32.13
2022-12-18T06:09:55.146Z,32.57
2022-12-18T06:10:37.397Z,33.33
2022-12-18T06:11:22.593Z,33.20
2022-12-18T06:12:04.456Z,31.97
2022-12-18T06:12:46.142Z,31.50
2022-12-18T06:13:27.744Z,32.33
2022-12-18T06:14:10.850Z,31.53
2022-12-18T06:14:52.417Z,32.10
2022-12-18T06:15:34.176Z,32.13
2022-12-18T06:16:15.910Z,31.80
2022-12-18T06:16:57.619Z,32.03
2022-12-18T06:17:39.268Z,32.80
2022-12-18T06:18:21.022Z,33.57
2022-12-18T06:19:05.848Z,32.50
2022-12-18T06:19:47.657Z,33.60
2022-12-18T06:20:33.914Z,34.23
2022-12-18T06:21:15.736Z,31.03
2022-12-18T06:21:59.827Z,32.43
2022-12-18T06:22:41.634Z,32.53
2022-12-18T06:23:24.080Z,31.10
2022-12-18T06:24:06.165Z,31.20
2022-12-18T06:24:47.743Z,32.87
2022-12-18T06:25:29.371Z,33.73
2022-12-18T06:26:13.301Z,33.50
2022-12-18T06:26:54.929Z,38.60
2022-12-18T06:27:36.555Z,33.30
2022-12-18T06:28:18.328Z,32.17
2022-12-18T06:29:00.396Z,32.87
2022-12-18T06:29:42.034Z,31.70
2022-12-18T06:30:23.897Z,30.50
2022-12-18T06:31:07.032Z,32.17
2022-12-18T06:31:48.876Z,32.53
2022-12-18T06:32:30.656Z,32.30
2022-12-18T06:33:12.243Z,31.03
2022-12-18T06:33:53.801Z,30.50
2022-12-18T06:34:37.606Z,33.57
2022-12-18T06:35:19.209Z,29.70
2022-12-18T06:36:13.586Z,31.10
2022-12-18T06:36:55.217Z,30.47
2022-12-18T06:37:36.946Z,30.20
2022-12-18T06:38:18.676Z,30.33
2022-12-18T06:39:00.374Z,32.33
2022-12-18T06:39:41.986Z,31.07
2022-12-18T06:40:23.582Z,29.97
2022-12-18T06:41:10.942Z,29.87
2022-12-18T06:41:52.672Z,27.63
2022-12-18T06:42:34.377Z,27.97
2022-12-18T06:43:15.931Z,28.80
2022-12-18T06:44:00.100Z,27.73
2022-12-18T06:44:41.928Z,26.47
2022-12-18T06:45:23.482Z,28.57
2022-12-18T06:46:05.944Z,27.60
2022-12-18T06:46:47.635Z,27.70
2022-12-18T06:47:29.248Z,27.10
2022-12-18T06:48:10.801Z,26.70
2022-12-18T06:48:52.410Z,27.50
2022-12-18T06:49:34.221Z,26.70
2022-12-18T06:50:15.860Z,26.30
2022-12-18T06:50:57.518Z,27.20
2022-12-18T06:51:39.325Z,26.77
2022-12-18T06:52:21.025Z,27.87
2022-12-18T06:53:02.599Z,26.37
2022-12-18T06:53:44.381Z,27.83
2022-12-18T06:54:26.074Z,27.10
2022-12-18T06:55:12.401Z,25.47
2022-12-18T06:56:06.435Z,27.87
2022-12-18T06:56:50.924Z,26.97
2022-12-18T06:57:32.676Z,28.27
2022-12-18T06:58:14.368Z,29.27
2022-12-18T06:58:56.041Z,28.57
2022-12-18T06:59:37.667Z,28.57
2022-12-18T07:00:19.334Z,26.43
2022-12-18T07:01:02.985Z,26.50
2022-12-18T07:01:44.948Z,26.30
2022-12-18T07:02:27.038Z,28.67
2022-12-18T07:03:10.800Z,27.30
2022-12-18T07:03:55.214Z,25.90
2022-12-18T07:04:36.937Z,28.10
2022-12-18T07:05:18.483Z,26.47
2022-12-18T07:06:00.355Z,27.33
2022-12-18T07:06:41.972Z,26.97
2022-12-18T07:07:23.541Z,28.07
2022-12-18T07:08:05.132Z,27.10
2022-12-18T07:08:49.874Z,28.47
2022-12-18T07:09:31.420Z,26.83
2022-12-18T07:10:13.101Z,26.57
2022-12-18T07:10:56.383Z,27.47
2022-12-18T07:11:38.286Z,25.83
2022-12-18T07:12:20.009Z,26.17
2022-12-18T07:13:01.710Z,26.47
2022-12-18T07:13:43.943Z,27.10
2022-12-18T07:14:25.539Z,25.60
2022-12-18T07:15:07.909Z,24.30
2022-12-18T07:15:49.690Z,26.40
2022-12-18T07:16:31.410Z,27.80
2022-12-18T07:17:13.200Z,26.87
2022-12-18T07:17:54.926Z,26.20
2022-12-18T07:18:36.907Z,26.50
2022-12-18T07:19:18.596Z,27.47
2022-12-18T07:20:01.979Z,28.73
2022-12-18T07:20:43.728Z,27.40
2022-12-18T07:21:26.122Z,27.57
2022-12-18T07:22:07.770Z,28.10
2022-12-18T07:22:54.708Z,27.07
2022-12-18T07:23:38.519Z,28.00
2022-12-18T07:24:20.413Z,27.40
2022-12-18T07:25:02.035Z,26.63
2022-12-18T07:25:43.669Z,26.83
2022-12-18T07:26:25.273Z,28.37
2022-12-18T07:27:06.914Z,28.57
2022-12-18T07:27:49.638Z,26.90
2022-12-18T07:28:33.257Z,26.43
2022-12-18T07:29:14.912Z,28.20
2022-12-18T07:29:56.632Z,27.20
2022-12-18T07:30:39.303Z,28.07
2022-12-18T07:31:22.512Z,28.00
2022-12-18T07:32:04.424Z,27.13
2022-12-18T07:32:46.137Z,27.00
2022-12-18T07:33:30.874Z,26.20
2022-12-18T07:34:14.064Z,26.83
2022-12-18T07:34:55.700Z,27.13
2022-12-18T07:35:37.395Z,27.10
2022-12-18T07:36:19.977Z,26.17
2022-12-18T07:37:04.617Z,25.07
2022-12-18T07:37:46.568Z,25.37
2022-12-18T07:38:28.254Z,24.73
2022-12-18T07:39:12.015Z,25.00
2022-12-18T07:39:53.626Z,25.20
2022-12-18T07:40:35.164Z,26.27
2022-12-18T07:41:16.986Z,24.00
2022-12-18T07:42:18.512Z,25.47
2022-12-18T07:43:00.131Z,24.13
2022-12-18T07:43:43.085Z,25.83
2022-12-18T07:44:25.001Z,24.77
2022-12-18T07:45:07.083Z,26.03
2022-12-18T07:45:51.583Z,26.27
2022-12-18T07:46:33.173Z,26.73
2022-12-18T07:47:14.799Z,24.47
2022-12-18T07:47:56.448Z,24.97
2022-12-18T07:48:38.071Z,27.97
2022-12-18T07:49:19.660Z,26.17
2022-12-18T07:50:01.317Z,26.07
2022-12-18T07:50:42.938Z,26.77
2022-12-18T07:51:24.640Z,26.40
2022-12-18T07:52:06.237Z,26.43
2022-12-18T07:52:47.847Z,26.43
2022-12-18T07:53:29.575Z,26.63
2022-12-18T07:54:11.190Z,25.13
2022-12-18T07:54:52.895Z,28.20
2022-12-18T07:55:59.950Z,25.90
2022-12-18T07:56:36.313Z,26.43
2022-12-18T07:57:48.461Z,26.50
2022-12-18T07:58:20.437Z,26.87
2022-12-18T07:59:04.859Z,27.30
2022-12-18T07:59:46.895Z,26.27
2022-12-18T08:00:28.861Z,39.40
2022-12-18T08:01:12.539Z,37.30
2022-12-18T08:01:54.357Z,26.83
2022-12-18T08:02:36.303Z,26.90
2022-12-18T08:03:17.997Z,27.33
2022-12-18T08:03:59.811Z,27.40
2022-12-18T08:04:41.574Z,26.53
2022-12-18T08:05:23.400Z,26.33
2022-12-18T08:06:08.011Z,26.73
2022-12-18T08:06:49.602Z,26.83
2022-12-18T08:07:31.239Z,27.37
2022-12-18T08:08:13.371Z,30.67
2022-12-18T08:08:56.640Z,27.93
2022-12-18T08:09:38.247Z,26.60
2022-12-18T08:10:20.909Z,24.33
2022-12-18T08:11:03.319Z,25.73
2022-12-18T08:11:45.007Z,26.87
2022-12-18T08:12:26.652Z,23.80
2022-12-18T08:13:08.253Z,25.53
2022-12-18T08:13:49.891Z,27.23
2022-12-18T08:14:31.617Z,26.60
2022-12-18T08:15:13.335Z,27.00
2022-12-18T08:16:03.250Z,26.17
2022-12-18T08:16:44.994Z,26.60
2022-12-18T08:17:26.683Z,25.67
2022-12-18T08:18:13.899Z,24.50
2022-12-18T08:18:56.054Z,25.13
2022-12-18T08:19:37.648Z,25.83
2022-12-18T08:20:19.381Z,25.07
2022-12-18T08:21:16.004Z,25.23
2022-12-18T08:21:57.887Z,24.33
2022-12-18T08:22:39.957Z,24.77
2022-12-18T08:23:21.840Z,24.83
2022-12-18T08:24:03.899Z,25.13
2022-12-18T08:24:46.057Z,26.23
2022-12-18T08:25:27.797Z,27.03
2022-12-18T08:26:10.471Z,32.80
2022-12-18T08:27:20.943Z,34.87
2022-12-18T08:27:54.725Z,29.03
2022-12-18T08:28:36.701Z,29.90
2022-12-18T08:29:21.553Z,44.33
2022-12-18T08:30:04.777Z,29.63
2022-12-18T08:30:52.963Z,31.20
2022-12-18T08:31:35.274Z,29.00
2022-12-18T08:32:17.057Z,26.07
2022-12-18T08:32:59.093Z,29.07
2022-12-18T08:33:41.865Z,27.47
2022-12-18T08:34:23.926Z,26.97
2022-12-18T08:35:05.982Z,26.47
2022-12-18T08:35:47.551Z,27.37
2022-12-18T08:36:29.439Z,26.87
2022-12-18T08:37:11.090Z,27.87
2022-12-18T08:37:52.785Z,26.67
2022-12-18T08:38:34.673Z,26.93
2022-12-18T08:39:16.291Z,26.77
2022-12-18T08:39:58.322Z,27.70
2022-12-18T08:40:40.028Z,28.73
2022-12-18T08:41:22.119Z,26.57
2022-12-18T08:42:22.463Z,24.90
2022-12-18T08:43:22.474Z,26.10
2022-12-18T08:44:22.586Z,25.60
2022-12-18T08:45:04.813Z,25.17
2022-12-18T08:45:46.469Z,26.60
2022-12-18T08:46:33.826Z,25.73
2022-12-18T08:47:15.636Z,25.60
2022-12-18T08:47:57.326Z,26.47
2022-12-18T08:48:38.959Z,26.03
2022-12-18T08:49:20.577Z,25.03
2022-12-18T08:50:02.226Z,24.93
2022-12-18T08:50:43.883Z,26.83
2022-12-18T08:51:25.556Z,26.57
2022-12-18T08:52:07.334Z,25.50
2022-12-18T08:52:48.996Z,25.00
2022-12-18T08:53:35.463Z,26.13
2022-12-18T08:54:17.732Z,26.97
2022-12-18T08:54:59.291Z,27.13
2022-12-18T08:55:43.570Z,26.27
2022-12-18T08:56:28.950Z,24.90
2022-12-18T08:57:10.610Z,25.00
2022-12-18T08:57:52.302Z,24.10
2022-12-18T08:58:34.023Z,26.23
2022-12-18T08:59:19.455Z,26.03
2022-12-18T09:00:01.801Z,26.27
2022-12-18T09:00:43.506Z,25.10
2022-12-18T09:01:25.244Z,25.80
2022-12-18T09:02:07.087Z,26.77
2022-12-18T09:02:48.929Z,26.77
2022-12-18T09:03:31.334Z,26.27
2022-12-18T09:04:13.388Z,24.93
2022-12-18T09:04:57.530Z,26.83
2022-12-18T09:05:39.562Z,24.17
2022-12-18T09:06:23.009Z,25.97
2022-12-18T09:07:04.580Z,25.50
2022-12-18T09:07:46.190Z,24.67
2022-12-18T09:08:28.516Z,26.30
2022-12-18T09:09:10.768Z,24.97
2022-12-18T09:09:52.447Z,26.83
2022-12-18T09:10:37.651Z,24.90
2022-12-18T09:11:28.796Z,25.20
2022-12-18T09:12:11.068Z,24.50
2022-12-18T09:12:52.695Z,25.23
2022-12-18T09:13:34.277Z,25.47
2022-12-18T09:14:15.932Z,24.80
2022-12-18T09:14:57.670Z,26.40
2022-12-18T09:15:57.310Z,26.40
2022-12-18T09:16:39.150Z,23.17
2022-12-18T09:17:20.869Z,26.10
2022-12-18T09:18:02.515Z,29.27
2022-12-18T09:18:44.236Z,28.50
2022-12-18T09:19:25.874Z,26.83
2022-12-18T09:20:08.165Z,28.27
2022-12-18T09:20:51.179Z,26.90
2022-12-18T09:21:36.055Z,26.10
2022-12-18T09:22:19.032Z,27.07
2022-12-18T09:23:00.675Z,25.57
2022-12-18T09:23:42.902Z,25.93
2022-12-18T09:24:24.522Z,26.80
2022-12-18T09:25:08.997Z,26.00
2022-12-18T09:25:50.681Z,25.60
2022-12-18T09:26:32.490Z,26.27
2022-12-18T09:27:14.106Z,25.13
2022-12-18T09:27:55.754Z,25.73
2022-12-18T09:28:37.637Z,25.33
2022-12-18T09:29:19.395Z,24.77
2022-12-18T09:30:01.533Z,24.33
2022-12-18T09:30:47.694Z,23.80
2022-12-18T09:31:29.483Z,23.57
2022-12-18T09:32:11.210Z,24.63
2022-12-18T09:32:56.073Z,23.37
2022-12-18T09:33:38.070Z,24.70
2022-12-18T09:34:21.981Z,24.43
2022-12-18T09:35:04.375Z,24.57
2022-12-18T09:35:46.884Z,25.50
2022-12-18T09:36:28.606Z,24.07
2022-12-18T09:37:10.408Z,23.87
2022-12-18T09:37:52.051Z,23.40